createdAt,value
2023-03-10T00:00:12.606Z,0.65
2023-03-10T00:02:39.201Z,0.70
2023-03-10T00:05:06.107Z,0.75
2023-03-10T00:07:32.658Z,0.65
2023-03-10T00:09:59.148Z,0.70
2023-03-10T00:12:27.819Z,0.88
2023-03-10T00:14:55.223Z,0.70
2023-03-10T00:17:21.920Z,0.70
2023-03-10T00:19:48.392Z,1.02
2023-03-10T00:22:14.897Z,0.80
2023-03-10T00:24:41.315Z,0.70
2023-03-10T00:27:07.840Z,0.70
2023-03-10T00:29:34.299Z,0.75
2023-03-10T00:32:00.769Z,1.00
2023-03-10T00:34:27.217Z,0.93
2023-03-10T00:36:53.720Z,0.75
2023-03-10T00:39:20.156Z,0.80
2023-03-10T00:41:46.667Z,0.75
2023-03-10T00:44:13.201Z,0.77
2023-03-10T00:46:40.190Z,0.70
2023-03-10T00:49:08.308Z,0.80
2023-03-10T00:51:35.660Z,1.00
2023-03-10T00:54:03.184Z,1.02
2023-03-10T00:56:30.368Z,0.90
2023-03-10T00:58:59.967Z,1.00
2023-03-10T01:01:39.700Z,1.00
2023-03-10T01:04:09.404Z,1.15
2023-03-10T01:06:36.716Z,1.15
2023-03-10T01:09:05.926Z,1.00
2023-03-10T01:11:33.248Z,0.90
2023-03-10T01:14:02.939Z,1.30
2023-03-10T01:16:30.545Z,1.20
2023-03-10T01:18:58.676Z,1.13
2023-03-10T01:21:29.068Z,1.02
2023-03-10T01:23:55.760Z,1.27
2023-03-10T01:26:22.280Z,1.30
2023-03-10T01:28:49.180Z,1.30
2023-03-10T01:31:17.287Z,1.05
2023-03-10T01:33:45.619Z,1.25
2023-03-10T01:36:15.933Z,1.30
2023-03-10T01:38:43.258Z,1.20
2023-03-10T01:41:10.145Z,1.30
2023-03-10T01:43:38.709Z,1.02
2023-03-10T01:46:24.750Z,1.80
2023-03-10T01:48:51.552Z,1.90
2023-03-10T01:51:18.716Z,1.58
2023-03-10T01:53:45.280Z,1.75
2023-03-10T01:56:12.007Z,1.00
2023-03-10T01:58:42.460Z,0.80
2023-03-10T02:01:11.692Z,1.00
2023-03-10T02:03:47.032Z,0.90
2023-03-10T02:06:15.363Z,0.82
2023-03-10T02:08:45.743Z,0.90
2023-03-10T02:11:14.320Z,0.90
2023-03-10T02:13:40.880Z,0.60
2023-03-10T02:16:07.681Z,0.80
2023-03-10T02:18:34.266Z,0.70
2023-03-10T02:21:10.381Z,0.75
2023-03-10T02:23:55.012Z,0.70
2023-03-10T02:26:27.179Z,0.70
2023-03-10T02:28:55.880Z,0.63
2023-03-10T02:31:22.921Z,0.50
2023-03-10T02:33:50.602Z,0.60
2023-03-10T02:36:20.593Z,0.60
2023-03-10T02:38:47.156Z,0.63
2023-03-10T02:41:26.794Z,0.55
2023-03-10T02:43:54.924Z,0.95
2023-03-10T02:46:22.141Z,0.70
2023-03-10T02:48:48.670Z,0.60
2023-03-10T02:51:19.531Z,0.70
2023-03-10T02:53:45.931Z,0.82
2023-03-10T02:56:12.763Z,0.60
2023-03-10T02:58:39.293Z,0.63
2023-03-10T03:01:06.550Z,0.47
2023-03-10T03:03:33.647Z,0.70
2023-03-10T03:06:00.374Z,0.75
2023-03-10T03:08:27.402Z,0.70
2023-03-10T03:10:54.388Z,0.85
2023-03-10T03:13:20.934Z,1.00
2023-03-10T03:15:48.716Z,0.95
2023-03-10T03:18:15.145Z,1.17
2023-03-10T03:20:41.723Z,1.45
2023-03-10T03:23:08.400Z,1.02
2023-03-10T03:25:37.461Z,1.00
2023-03-10T03:28:05.281Z,1.17
2023-03-10T03:30:32.350Z,1.25
2023-03-10T03:32:59.060Z,1.00
2023-03-10T03:35:32.400Z,1.30
2023-03-10T03:37:59.588Z,1.00
2023-03-10T03:40:27.766Z,1.15
2023-03-10T03:42:54.960Z,1.13
2023-03-10T03:45:26.398Z,1.25
2023-03-10T03:47:52.935Z,1.17
2023-03-10T03:50:20.992Z,1.40
2023-03-10T03:52:47.749Z,0.70
2023-03-10T03:55:15.948Z,0.90
2023-03-10T03:57:44.887Z,0.95
2023-03-10T04:00:15.940Z,1.00
2023-03-10T04:02:42.713Z,1.17
2023-03-10T04:05:09.350Z,1.45
2023-03-10T04:07:37.808Z,0.85
2023-03-10T04:10:05.150Z,0.85
2023-03-10T04:12:31.626Z,1.35
2023-03-10T04:14:58.155Z,0.85
2023-03-10T04:17:24.592Z,1.20
2023-03-10T04:20:04.639Z,1.30
2023-03-10T04:22:33.278Z,0.90
2023-03-10T04:24:59.938Z,1.20
2023-03-10T04:27:26.409Z,1.00
2023-03-10T04:29:52.872Z,1.42
2023-03-10T04:32:19.400Z,1.23
2023-03-10T04:34:45.888Z,1.23
2023-03-10T04:37:12.386Z,1.25
2023-03-10T04:39:39.687Z,1.35
2023-03-10T04:42:06.299Z,1.27
2023-03-10T04:44:32.950Z,1.20
2023-03-10T04:46:59.864Z,1.20
2023-03-10T04:49:26.999Z,1.10
2023-03-10T04:51:53.593Z,1.27
2023-03-10T04:54:20.032Z,1.13
2023-03-10T04:56:46.439Z,1.75
2023-03-10T04:59:12.976Z,1.38
2023-03-10T05:01:39.482Z,1.30
2023-03-10T05:04:06.543Z,1.60
2023-03-10T05:06:33.268Z,1.42
2023-03-10T05:09:01.136Z,1.70
2023-03-10T05:11:27.595Z,1.50
2023-03-10T05:13:54.084Z,2.25
2023-03-10T05:16:21.688Z,1.55
2023-03-10T05:18:48.321Z,1.73
2023-03-10T05:21:15.154Z,1.33
2023-03-10T05:23:41.845Z,1.42
2023-03-10T05:26:12.120Z,1.42
2023-03-10T05:28:38.669Z,1.42
2023-03-10T05:31:14.930Z,1.98
2023-03-10T05:33:42.180Z,1.55
2023-03-10T05:36:11.237Z,1.65
2023-03-10T05:38:38.085Z,1.80
2023-03-10T05:41:09.585Z,1.73
2023-03-10T05:43:37.328Z,1.50
2023-03-10T05:46:04.486Z,1.55
2023-03-10T05:48:31.131Z,1.50
2023-03-10T05:51:07.556Z,1.40
2023-03-10T05:53:35.708Z,1.30
2023-03-10T05:56:08.016Z,1.60
2023-03-10T05:58:35.306Z,1.63
2023-03-10T06:01:02.230Z,1.50
2023-03-10T06:03:30.101Z,1.33
2023-03-10T06:05:57.916Z,1.42
2023-03-10T06:08:25.455Z,1.50
2023-03-10T06:10:51.917Z,1.30
2023-03-10T06:13:21.331Z,1.15
2023-03-10T06:15:52.853Z,1.40
2023-03-10T06:18:19.965Z,1.13
2023-03-10T06:20:48.007Z,1.33
2023-03-10T06:23:15.885Z,1.35
2023-03-10T06:25:42.724Z,1.40
2023-03-10T06:28:10.674Z,1.73
2023-03-10T06:30:37.487Z,1.20
2023-03-10T06:33:04.106Z,1.83
2023-03-10T06:35:31.881Z,1.35
2023-03-10T06:37:58.325Z,1.17
2023-03-10T06:40:25.043Z,1.27
2023-03-10T06:42:51.481Z,1.25
2023-03-10T06:45:18.113Z,1.10
2023-03-10T06:47:45.257Z,0.90
2023-03-10T06:50:13.126Z,1.40
2023-03-10T06:52:39.698Z,1.55
2023-03-10T06:55:06.834Z,1.45
2023-03-10T06:57:33.999Z,1.13
2023-03-10T07:00:00.550Z,1.65
2023-03-10T07:02:27.189Z,1.65
2023-03-10T07:04:53.789Z,1.60
2023-03-10T07:07:20.337Z,1.05
2023-03-10T07:09:47.018Z,1.20
2023-03-10T07:12:13.552Z,1.50
2023-03-10T07:14:40.040Z,1.70
2023-03-10T07:17:06.632Z,1.20
2023-03-10T07:19:33.218Z,1.48
2023-03-10T07:21:59.698Z,1.00
2023-03-10T07:24:26.164Z,1.25
2023-03-10T07:26:53.516Z,1.33
2023-03-10T07:29:19.979Z,1.38
2023-03-10T07:31:46.596Z,1.33
2023-03-10T07:34:13.464Z,1.13
2023-03-10T07:36:39.876Z,1.20
2023-03-10T07:39:06.340Z,1.52
2023-03-10T07:41:32.803Z,1.60
2023-03-10T07:43:59.407Z,1.17
2023-03-10T07:46:26.005Z,1.48
2023-03-10T07:48:52.989Z,1.63
2023-03-10T07:51:21.002Z,1.73
2023-03-10T07:53:47.549Z,2.20
2023-03-10T07:56:14.894Z,1.35
2023-03-10T07:58:42.040Z,1.85
2023-03-10T08:01:13.680Z,1.60
2023-03-10T08:03:40.828Z,1.70
2023-03-10T08:06:07.531Z,2.00
2023-03-10T08:08:34.130Z,2.35
2023-03-10T08:11:01.874Z,1.95
2023-03-10T08:13:28.605Z,2.08
2023-03-10T08:15:55.688Z,2.53
2023-03-10T08:18:23.367Z,1.90
2023-03-10T08:20:49.863Z,2.00
2023-03-10T08:23:16.356Z,1.77
2023-03-10T08:25:42.833Z,2.13
2023-03-10T08:28:09.285Z,2.47
2023-03-10T08:30:43.667Z,2.55
2023-03-10T08:33:19.027Z,2.15
2023-03-10T08:35:45.499Z,1.80
2023-03-10T08:38:11.980Z,1.80
2023-03-10T08:40:38.558Z,2.47
2023-03-10T08:43:06.226Z,1.95
2023-03-10T08:45:32.871Z,2.15
2023-03-10T08:47:59.387Z,1.95
2023-03-10T08:50:25.909Z,2.60
2023-03-10T08:52:52.410Z,2.47
2023-03-10T08:55:18.981Z,1.95
2023-03-10T08:57:45.463Z,2.10
2023-03-10T09:00:12.897Z,1.95
2023-03-10T09:02:40.071Z,2.17
2023-03-10T09:05:07.071Z,2.08
2023-03-10T09:07:33.627Z,2.10
2023-03-10T09:10:00.089Z,1.70
2023-03-10T09:12:31.427Z,2.17
2023-03-10T09:15:01.659Z,1.75
2023-03-10T09:17:28.123Z,1.80
2023-03-10T09:19:54.556Z,1.80
2023-03-10T09:22:21.015Z,1.77
2023-03-10T09:24:47.468Z,1.67
2023-03-10T09:27:13.923Z,1.75
2023-03-10T09:29:43.374Z,1.63
2023-03-10T09:32:10.553Z,1.63
2023-03-10T09:34:37.090Z,1.50
2023-03-10T09:37:03.649Z,1.40
2023-03-10T09:39:30.123Z,1.42
2023-03-10T09:41:56.609Z,1.90
2023-03-10T09:44:38.755Z,2.08
2023-03-10T09:47:19.645Z,1.88
2023-03-10T09:50:17.796Z,1.95
2023-03-10T09:53:14.430Z,1.38
2023-03-10T09:55:47.843Z,1.58
2023-03-10T09:58:32.478Z,1.80
2023-03-10T10:01:00.388Z,1.70
2023-03-10T10:03:50.132Z,1.98
2023-03-10T10:06:24.038Z,1.42
2023-03-10T10:09:27.980Z,1.10
2023-03-10T10:11:54.526Z,1.17
2023-03-10T10:14:30.535Z,1.10
2023-03-10T10:17:16.188Z,1.02
2023-03-10T10:19:45.840Z,1.10
2023-03-10T10:22:48.069Z,1.50
2023-03-10T10:25:25.326Z,1.10
2023-03-10T10:27:55.235Z,1.00
2023-03-10T10:30:36.063Z,1.02
2023-03-10T10:33:05.786Z,0.90
2023-03-10T10:35:39.222Z,0.90
2023-03-10T10:38:11.491Z,1.20
2023-03-10T10:41:07.316Z,0.65
2023-03-10T10:43:43.496Z,1.08
2023-03-10T10:46:12.461Z,1.10
2023-03-10T10:48:46.107Z,1.70
2023-03-10T10:51:29.066Z,1.10
2023-03-10T10:54:01.808Z,0.93
2023-03-10T10:56:29.036Z,1.33
2023-03-10T10:59:07.891Z,1.10
2023-03-10T11:01:53.114Z,1.02
2023-03-10T11:04:20.876Z,0.80
2023-03-10T11:06:48.212Z,1.25
2023-03-10T11:09:18.766Z,1.00
2023-03-10T11:15:01.873Z,1.35
2023-03-10T11:17:40.558Z,1.27
2023-03-10T11:20:25.497Z,1.10
2023-03-10T11:23:03.825Z,1.02
2023-03-10T11:25:36.968Z,1.00
2023-03-10T11:28:36.838Z,1.20
2023-03-10T11:31:31.298Z,1.17
2023-03-10T11:34:09.609Z,0.80
2023-03-10T11:37:14.362Z,0.65
2023-03-10T11:39:41.626Z,0.80
2023-03-10T11:42:14.843Z,1.10
2023-03-10T11:45:00.253Z,0.80
2023-03-10T11:47:45.943Z,1.15
2023-03-10T11:50:20.965Z,0.75
2023-03-10T11:52:49.588Z,0.68
2023-03-10T11:55:21.535Z,1.05
2023-03-10T11:57:53.110Z,1.10
2023-03-10T12:00:29.194Z,0.93
2023-03-10T12:03:19.797Z,1.05
2023-03-10T12:05:54.779Z,0.93
2023-03-10T12:08:23.666Z,1.13
2023-03-10T12:10:51.060Z,0.60
2023-03-10T12:13:32.958Z,0.77
2023-03-10T12:16:02.476Z,0.60
2023-03-10T12:18:29.554Z,0.73
2023-03-10T12:21:22.432Z,0.80
2023-03-10T12:23:54.378Z,0.70
2023-03-10T12:27:03.870Z,0.60
2023-03-10T12:29:36.894Z,0.93
2023-03-10T12:32:03.787Z,0.77
2023-03-10T12:34:32.342Z,0.40
2023-03-10T12:37:09.008Z,0.60
2023-03-10T12:39:38.637Z,0.60
2023-03-10T12:42:26.881Z,0.52
2023-03-10T12:44:55.923Z,0.52
2023-03-10T12:47:24.333Z,1.05
2023-03-10T12:49:57.323Z,1.05
2023-03-10T12:52:53.735Z,0.63
2023-03-10T12:55:24.184Z,0.65
2023-03-10T12:58:00.154Z,0.50
2023-03-10T13:00:43.289Z,0.60
2023-03-10T13:03:09.753Z,0.90
2023-03-10T13:05:41.217Z,1.17
2023-03-10T13:08:22.501Z,1.02
2023-03-10T13:10:54.582Z,0.75
2023-03-10T13:13:21.515Z,0.90
2023-03-10T13:16:03.607Z,0.90
2023-03-10T13:18:30.680Z,0.90
2023-03-10T13:21:01.522Z,0.68
2023-03-10T13:23:37.200Z,0.90
2023-03-10T13:26:15.969Z,0.82
2023-03-10T13:29:00.804Z,0.70
2023-03-10T13:31:28.618Z,0.93
2023-03-10T13:33:56.466Z,0.93
2023-03-10T13:36:36.886Z,0.75
2023-03-10T13:39:15.702Z,0.77
2023-03-10T13:41:46.536Z,1.40
2023-03-10T13:44:21.926Z,1.02
2023-03-10T13:46:56.932Z,1.10
2023-03-10T13:49:27.687Z,1.40
2023-03-10T13:52:01.529Z,1.30
2023-03-10T13:54:32.432Z,1.08
2023-03-10T13:57:02.910Z,1.92
2023-03-10T13:59:31.708Z,1.52
2023-03-10T14:02:00.393Z,1.08
2023-03-10T14:04:43.976Z,1.10
2023-03-10T14:07:18.528Z,1.13
2023-03-10T14:09:47.662Z,1.17
2023-03-10T14:12:15.479Z,1.30
2023-03-10T14:14:42.359Z,1.33
2023-03-10T14:17:29.740Z,1.10
2023-03-10T14:19:56.686Z,1.13
2023-03-10T14:22:41.409Z,0.90
2023-03-10T14:25:20.446Z,1.00
2023-03-10T14:27:50.569Z,0.98
2023-03-10T14:30:29.484Z,1.27
2023-03-10T14:32:57.413Z,1.23
2023-03-10T14:35:25.477Z,1.10
2023-03-10T14:37:53.117Z,1.20
2023-03-10T14:40:21.575Z,1.02
2023-03-10T14:42:50.425Z,1.27
2023-03-10T14:45:39.559Z,1.20
2023-03-10T14:48:14.684Z,1.20
2023-03-10T14:50:41.379Z,1.20
2023-03-10T14:53:12.968Z,1.20
2023-03-10T14:55:41.758Z,1.30
2023-03-10T14:58:14.119Z,1.30
2023-03-10T15:00:40.568Z,1.75
2023-03-10T15:03:07.028Z,1.25
2023-03-10T15:05:47.481Z,1.40
2023-03-10T15:08:15.140Z,1.27
2023-03-10T15:10:43.732Z,1.70
2023-03-10T15:13:13.719Z,1.40
2023-03-10T15:15:42.660Z,1.52
2023-03-10T15:18:13.674Z,2.08
2023-03-10T15:20:40.441Z,2.00
2023-03-10T15:23:07.542Z,1.98
2023-03-10T15:25:34.043Z,2.40
2023-03-10T15:28:00.558Z,2.38
2023-03-10T15:30:30.688Z,2.47
2023-03-10T15:32:57.290Z,2.10
2023-03-10T15:35:24.446Z,2.83
2023-03-10T15:37:52.020Z,2.30
2023-03-10T15:40:22.263Z,2.80
2023-03-10T15:42:49.700Z,2.25
2023-03-10T15:45:18.382Z,1.98
2023-03-10T15:47:46.207Z,1.80
2023-03-10T15:50:14.206Z,1.63
2023-03-10T15:52:46.042Z,1.52
2023-03-10T15:55:14.872Z,2.50
2023-03-10T15:57:41.541Z,1.95
2023-03-10T16:00:09.220Z,2.10
2023-03-10T16:02:35.700Z,3.05
2023-03-10T16:05:02.312Z,2.00
2023-03-10T16:07:28.819Z,1.75
2023-03-10T16:09:55.521Z,4.88
2023-03-10T16:12:23.369Z,1.92
2023-03-10T16:14:50.104Z,0.95
2023-03-10T16:17:16.841Z,0.85
2023-03-10T16:19:43.304Z,2.28
2023-03-10T16:22:10.428Z,0.82
2023-03-10T16:24:36.971Z,1.45
2023-03-10T16:27:03.688Z,1.48
2023-03-10T16:29:30.284Z,1.65
2023-03-10T16:31:56.788Z,2.78
2023-03-10T16:34:23.395Z,1.33
2023-03-10T16:36:50.410Z,2.53
2023-03-10T16:39:17.938Z,1.55
2023-03-10T16:41:44.582Z,2.63
2023-03-10T16:44:13.059Z,1.60
2023-03-10T16:46:39.820Z,1.40
2023-03-10T16:49:07.238Z,1.90
2023-03-10T16:51:35.260Z,1.67
2023-03-10T16:54:04.549Z,5.50
2023-03-10T16:56:32.621Z,2.65
2023-03-10T16:58:59.088Z,3.70
2023-03-10T17:01:25.603Z,3.70
2023-03-10T17:03:54.214Z,2.20
2023-03-10T17:06:24.919Z,2.10
2023-03-10T17:08:52.862Z,3.15
2023-03-10T17:11:25.732Z,3.78
2023-03-10T17:13:54.294Z,3.30
2023-03-10T17:16:23.550Z,2.30
2023-03-10T17:18:51.022Z,4.22
2023-03-10T17:21:20.578Z,3.70
2023-03-10T17:23:47.730Z,1.90
2023-03-10T17:26:15.187Z,6.10
2023-03-10T17:28:43.368Z,2.00
2023-03-10T17:31:12.916Z,2.03
2023-03-10T17:33:39.939Z,2.47
2023-03-10T17:36:12.310Z,2.33
2023-03-10T17:38:40.871Z,3.05
2023-03-10T17:41:10.077Z,3.28
2023-03-10T17:43:37.185Z,2.30
2023-03-10T17:46:14.575Z,3.85
2023-03-10T17:48:41.497Z,3.35
2023-03-10T17:51:08.788Z,3.60
2023-03-10T17:53:35.463Z,10.95
2023-03-10T17:56:06.316Z,6.35
2023-03-10T17:58:33.560Z,3.05
2023-03-10T18:01:16.592Z,2.90
2023-03-10T18:03:43.176Z,2.50
2023-03-10T18:06:18.120Z,3.45
2023-03-10T18:08:45.285Z,2.80
2023-03-10T18:11:12.188Z,5.30
2023-03-10T18:13:39.136Z,2.50
2023-03-10T18:16:07.914Z,4.50
2023-03-10T18:18:34.410Z,3.97
2023-03-10T18:21:00.889Z,4.85
2023-03-10T18:23:27.377Z,5.55
2023-03-10T18:25:53.908Z,3.60
2023-03-10T18:28:20.705Z,3.30
2023-03-10T18:30:49.448Z,3.50
2023-03-10T18:33:16.138Z,4.20
2023-03-10T18:35:44.791Z,3.35
2023-03-10T18:38:13.448Z,4.30
2023-03-10T18:40:40.865Z,3.50
2023-03-10T18:43:07.388Z,4.47
2023-03-10T18:45:33.854Z,4.03
2023-03-10T18:48:00.445Z,3.05
2023-03-10T18:50:26.940Z,5.65
2023-03-10T18:52:53.459Z,4.28
2023-03-10T18:55:19.896Z,3.40
2023-03-10T18:57:46.412Z,3.53
2023-03-10T19:00:14.815Z,3.28
2023-03-10T19:02:44.550Z,3.15
2023-03-10T19:05:15.343Z,2.97
2023-03-10T19:07:42.063Z,2.65
2023-03-10T19:10:11.586Z,2.53
2023-03-10T19:12:38.159Z,2.50
2023-03-10T19:15:08.867Z,4.70
2023-03-10T19:17:37.559Z,2.83
2023-03-10T19:20:07.343Z,2.35
2023-03-10T19:22:34.945Z,2.92
2023-03-10T19:25:03.524Z,2.00
2023-03-10T19:27:30.649Z,1.92
2023-03-10T19:29:57.214Z,1.58
2023-03-10T19:32:24.270Z,4.85
2023-03-10T19:34:50.892Z,4.35
2023-03-10T19:37:17.509Z,4.03
2023-03-10T19:39:43.963Z,3.28
2023-03-10T19:42:10.493Z,4.00
2023-03-10T19:44:40.103Z,3.72
2023-03-10T19:47:06.721Z,2.50
2023-03-10T19:49:34.218Z,4.20
2023-03-10T19:52:01.647Z,3.00
2023-03-10T19:54:28.162Z,4.93
2023-03-10T19:56:54.661Z,8.55
2023-03-10T19:59:21.207Z,4.68
2023-03-10T20:01:49.255Z,10.32
2023-03-10T20:04:15.949Z,6.20
2023-03-10T20:06:42.429Z,5.50
2023-03-10T20:09:10.384Z,4.90
2023-03-10T20:11:41.067Z,4.38
2023-03-10T20:14:08.439Z,5.00
2023-03-10T20:16:35.465Z,6.05
2023-03-10T20:19:02.078Z,4.85
2023-03-10T20:21:29.318Z,5.70
2023-03-10T20:23:56.409Z,4.40
2023-03-10T20:26:23.448Z,8.30
2023-03-10T20:28:50.543Z,4.43
2023-03-10T20:31:20.160Z,4.78
2023-03-10T20:33:47.732Z,4.82
2023-03-10T20:36:15.842Z,5.85
2023-03-10T20:38:44.136Z,5.03
2023-03-10T20:41:15.692Z,4.18
2023-03-10T20:43:43.022Z,4.18
2023-03-10T20:46:09.995Z,15.63
2023-03-10T20:48:36.640Z,6.18
2023-03-10T20:51:03.628Z,3.70
2023-03-10T20:53:33.296Z,3.80
2023-03-10T20:56:00.632Z,3.53
2023-03-10T20:58:27.890Z,3.30
2023-03-10T21:00:54.413Z,3.17
2023-03-10T21:03:23.831Z,4.50
2023-03-10T21:05:50.278Z,6.85
2023-03-10T21:08:16.782Z,2.88
2023-03-10T21:10:44.916Z,5.30
2023-03-10T21:13:12.030Z,2.92
2023-03-10T21:15:39.741Z,3.75
2023-03-10T21:18:06.432Z,3.60
2023-03-10T21:20:33.815Z,2.70
2023-03-10T21:23:00.472Z,2.90
2023-03-10T21:25:28.304Z,4.55
2023-03-10T21:27:58.683Z,1.90
2023-03-10T21:30:31.638Z,2.80
2023-03-10T21:32:58.684Z,2.40
2023-03-10T21:35:26.863Z,2.97
2023-03-10T21:37:55.377Z,2.53
2023-03-10T21:40:24.300Z,4.93
2023-03-10T21:42:51.144Z,1.88
2023-03-10T21:45:22.779Z,2.03
2023-03-10T21:47:49.470Z,1.92
2023-03-10T21:50:16.649Z,14.80
2023-03-10T21:52:43.652Z,1.80
2023-03-10T21:55:18.470Z,2.58
2023-03-10T21:57:44.984Z,2.15
2023-03-10T22:00:12.852Z,2.40
2023-03-10T22:02:39.399Z,2.92
2023-03-10T22:05:06.564Z,3.38
2023-03-10T22:07:33.588Z,1.75
2023-03-10T22:10:00.143Z,2.28
2023-03-10T22:12:26.641Z,2.95
2023-03-10T22:14:56.362Z,1.50
2023-03-10T22:17:24.713Z,2.05
2023-03-10T22:19:54.595Z,1.67
2023-03-10T22:22:22.300Z,2.80
2023-03-10T22:24:49.273Z,3.05
2023-03-10T22:27:15.765Z,2.13
2023-03-10T22:29:42.291Z,2.55
2023-03-10T22:32:08.853Z,4.18
2023-03-10T22:34:35.416Z,3.03
2023-03-10T22:37:01.856Z,2.83
2023-03-10T22:39:28.370Z,2.42
2023-03-10T22:41:54.809Z,2.42
2023-03-10T22:44:21.393Z,2.95
2023-03-10T22:46:48.132Z,2.30
2023-03-10T22:49:14.819Z,2.97
2023-03-10T22:51:41.861Z,2.83
2023-03-10T22:54:08.312Z,2.88
2023-03-10T22:56:34.753Z,1.83
2023-03-10T22:59:03.925Z,2.10
2023-03-10T23:01:30.564Z,3.75
2023-03-10T23:03:57.384Z,2.17
2023-03-10T23:06:26.270Z,3.05
2023-03-10T23:08:52.860Z,2.33
2023-03-10T23:11:19.509Z,2.13
2023-03-10T23:13:46.076Z,1.63
2023-03-10T23:16:12.598Z,2.40
2023-03-10T23:18:39.229Z,1.95
2023-03-10T23:21:06.932Z,2.15
2023-03-10T23:23:33.686Z,1.83
2023-03-10T23:26:00.271Z,2.30
2023-03-10T23:28:27.190Z,3.00
2023-03-10T23:30:54.329Z,2.10
2023-03-10T23:33:22.824Z,2.88
2023-03-10T23:35:55.269Z,3.95
2023-03-10T23:38:24.531Z,4.00
2023-03-10T23:40:52.557Z,2.00
2023-03-10T23:43:19.384Z,2.72
2023-03-10T23:45:46.256Z,2.10
2023-03-10T23:48:16.144Z,2.10
2023-03-10T23:50:44.952Z,3.40
2023-03-10T23:53:13.067Z,3.45
2023-03-10T23:55:43.516Z,2.40
2023-03-10T23:58:10.743Z,2.97
